Terminal Aerodrome Forecast
Issued by NWS

Home | Current Version | Previous Version | Text Only | Print | Product List | Glossary On
Versions: 1 2 3 4 5 6 7 8 9 10 11 12 13 14 15 16 17 18 19 20
103
FTUS45 KRIW 280523
TAFCOD
TAF
KCOD 280523Z 2806/2906 36014KT 5SM -SN OVC011
     FM280900 35015KT 1 1/2SM -SN OVC007
     FM281800 35015KT 3SM -SN OVC018
     FM290000 36011KT P6SM VCSH SCT018 OVC030
     FM290300 33008KT P6SM BKN050
      AMD LTD TO CLD VIS AND WIND=

USA.gov is the U.S. government's official web portal to all federal, state and local government web resources and services.